Salem, Michigan
Current Conditions -  °F | °C
As of 11:53 AM on Sunday 23 Nov 2014 (Local Time) from KYIP Reporting Station
Overcast Overcast  
Wind Chill: 11°   Ceiling: 7000
Heat Index: 11°   Visibility: 7mi
Dew Point:   Wind: 8mph
Humidity: 80%   Direction: 150°SSE
Pressure: 29.87"   Gusts: NA
Location:  42.41°N, 83.58°W
Report Text: KYIP 231653Z 15007KT 7SM BKN070 BKN080 OVC100 11/07 A2987 RMK AO2 SLP116 T01060072
Loading
Personal Weather Stations






























Interactive Weather Map New forecast layout! Learn more

10-Day Weather Forecast

Advertisements
Track Severe Weather on mobile